Time;durP1;ratioP1;P1;durP2;ratioP2;P2;SDS_P1;SDS_P2;PMS_P1;PMS_P2;Temp;Humidity;BMP_temperature;BMP_pressure;BME280_temperature;BME280_humidity;BME280_pressure;Samples;Min_cycle;Max_cycle;Signal;HPM_P1;HPM_P2
2021/04/24 00:01:13;;;;;;;8.98;4.38;;;7.40;90.30;;;;;;10327086;28;20065;-63
2021/04/24 00:06:15;;;;;;;15.40;5.43;;;7.40;90.40;;;;;;10332014;28;20046;-62
2021/04/24 00:11:17;;;;;;;14.65;4.18;;;7.30;90.80;;;;;;10314898;28;23541;-62
2021/04/24 00:16:19;;;;;;;10.93;3.60;;;7.30;91.50;;;;;;10333537;28;20120;-62
2021/04/24 00:21:20;;;;;;;14.55;6.43;;;7.10;93.10;;;;;;10327931;28;20084;-63
2021/04/24 00:26:21;;;;;;;10.77;4.85;;;6.90;94.00;;;;;;10325743;28;20061;-63
2021/04/24 00:31:23;;;;;;;12.90;5.20;;;6.60;94.70;;;;;;10326914;28;20057;-63
2021/04/24 00:36:24;;;;;;;14.05;5.40;;;6.40;96.20;;;;;;10330655;28;20465;-62
2021/04/24 00:41:26;;;;;;;20.65;4.78;;;6.20;97.20;;;;;;10326947;28;20053;-64
2021/04/24 00:46:27;;;;;;;9.15;4.70;;;6.10;98.40;;;;;;10326695;28;20065;-63
2021/04/24 00:51:28;;;;;;;8.93;4.63;;;6.00;99.90;;;;;;10315861;28;20050;-63
2021/04/24 00:56:29;;;;;;;11.20;4.38;;;5.90;99.90;;;;;;10328428;28;20141;-63
2021/04/24 01:01:31;;;;;;;11.35;4.95;;;5.90;99.60;;;;;;10330311;28;20448;-62
2021/04/24 01:06:32;;;;;;;13.30;4.68;;;5.90;99.90;;;;;;10328224;28;20058;-62
2021/04/24 01:11:33;;;;;;;11.15;5.18;;;5.80;99.90;;;;;;10327360;28;20061;-63
2021/04/24 01:16:34;;;;;;;9.98;4.20;;;5.70;99.90;;;;;;10323014;28;20061;-62
2021/04/24 01:21:37;;;;;;;11.38;4.95;;;5.70;99.90;;;;;;10309480;28;20050;-62
2021/04/24 01:26:38;;;;;;;14.50;5.07;;;5.70;99.90;;;;;;10329900;28;20061;-63
2021/04/24 01:31:40;;;;;;;8.93;5.22;;;5.60;99.90;;;;;;10326492;28;20108;-63
2021/04/24 01:36:41;;;;;;;14.20;5.47;;;5.60;99.90;;;;;;10329069;28;20053;-62
2021/04/24 01:41:42;;;;;;;11.77;5.70;;;5.50;99.90;;;;;;10329328;28;20046;-63
2021/04/24 01:46:43;;;;;;;12.50;5.93;;;5.50;99.90;;;;;;10310567;28;20049;-62
2021/04/24 01:51:45;;;;;;;13.73;5.43;;;5.50;99.90;;;;;;10321572;28;20046;-62
2021/04/24 01:56:55;;;;;;;10.63;5.63;;;5.40;99.90;;;;;;10325132;28;20046;-62
2021/04/24 02:01:58;;;;;;;9.45;5.15;;;5.40;99.90;;;;;;10231561;28;20050;-62
2021/04/24 02:07:00;;;;;;;11.70;5.20;;;5.40;99.90;;;;;;10324228;28;20652;-62
2021/04/24 02:12:13;;;;;;;13.65;5.05;;;5.40;99.90;;;;;;10325080;28;20053;-63
2021/04/24 02:17:24;;;;;;;17.58;5.32;;;5.40;99.90;;;;;;10325742;28;20473;-63
2021/04/24 02:22:25;;;;;;;13.50;5.95;;;5.40;99.90;;;;;;10326975;28;20509;-63
2021/04/24 02:27:28;;;;;;;14.05;5.60;;;5.30;99.90;;;;;;10326853;28;20054;-62
2021/04/24 02:32:31;;;;;;;12.00;5.75;;;5.40;99.90;;;;;;10332800;28;20092;-62
2021/04/24 02:37:34;;;;;;;12.18;5.63;;;5.40;99.90;;;;;;10328709;28;20054;-62
2021/04/24 02:42:36;;;;;;;11.65;5.75;;;5.40;99.90;;;;;;10334313;28;20053;-62
2021/04/24 02:47:37;;;;;;;13.57;5.20;;;5.40;99.90;;;;;;10333605;28;20939;-62
2021/04/24 02:52:39;;;;;;;12.93;5.50;;;5.40;99.90;;;;;;10332698;28;20060;-62
2021/04/24 02:57:40;;;;;;;11.25;5.82;;;5.50;99.90;;;;;;10334807;28;20124;-62
2021/04/24 03:02:42;;;;;;;15.05;6.43;;;5.40;99.90;;;;;;10336100;28;20448;-62
2021/04/24 03:07:44;;;;;;;14.68;6.10;;;5.40;99.90;;;;;;10334873;28;20074;-62
2021/04/24 03:12:45;;;;;;;11.10;5.53;;;5.40;99.90;;;;;;10331632;28;20147;-63
2021/04/24 03:17:47;;;;;;;14.68;5.63;;;5.40;99.90;;;;;;10331029;28;20057;-62
2021/04/24 03:22:49;;;;;;;15.98;5.18;;;5.40;99.90;;;;;;10331111;28;20054;-62
2021/04/24 03:27:50;;;;;;;11.38;5.40;;;5.40;99.90;;;;;;10332805;28;20074;-62
2021/04/24 03:32:52;;;;;;;12.85;5.22;;;5.30;99.90;;;;;;10331238;28;20058;-62
2021/04/24 03:37:53;;;;;;;11.27;5.00;;;5.30;99.90;;;;;;10330415;28;20894;-62
2021/04/24 03:42:54;;;;;;;11.75;5.43;;;5.30;99.90;;;;;;10327846;28;20400;-62
2021/04/24 03:47:56;;;;;;;12.30;4.55;;;5.30;99.90;;;;;;10328470;28;20088;-62
2021/04/24 03:52:57;;;;;;;13.40;6.13;;;5.30;99.90;;;;;;10329816;28;20046;-62
2021/04/24 03:58:00;;;;;;;11.35;5.75;;;5.30;99.90;;;;;;10315880;28;20057;-63
2021/04/24 04:03:04;;;;;;;15.02;5.70;;;5.30;99.90;;;;;;10326675;28;20544;-63
2021/04/24 04:08:07;;;;;;;12.27;5.35;;;5.20;99.90;;;;;;10334102;28;20057;-63
2021/04/24 04:13:09;;;;;;;17.63;5.97;;;5.20;99.90;;;;;;10328965;28;20061;-60
2021/04/24 04:18:16;;;;;;;21.88;8.20;;;5.20;99.90;;;;;;10334242;28;20719;-62
2021/04/24 04:23:17;;;;;;;20.42;8.30;;;5.30;99.90;;;;;;10328276;28;20124;-62
2021/04/24 04:28:20;;;;;;;15.32;6.05;;;5.20;99.90;;;;;;10312319;28;20057;-62
2021/04/24 04:33:23;;;;;;;17.73;6.53;;;5.20;99.90;;;;;;10326908;28;20109;-62
2021/04/24 04:38:24;;;;;;;9.27;4.63;;;5.20;99.90;;;;;;10328698;28;20139;-62
2021/04/24 04:43:26;;;;;;;13.07;5.63;;;5.20;99.90;;;;;;10328958;28;20046;-62
2021/04/24 04:48:27;;;;;;;13.07;5.65;;;5.20;99.90;;;;;;10327440;28;20043;-62
2021/04/24 04:53:28;;;;;;;14.25;5.40;;;5.20;99.90;;;;;;10329830;28;20045;-62
2021/04/24 04:58:45;;;;;;;14.15;5.57;;;5.10;99.90;;;;;;10329385;28;20152;-62
2021/04/24 05:03:46;;;;;;;13.73;5.93;;;5.30;99.90;;;;;;10325660;28;20050;-62
2021/04/24 05:08:48;;;;;;;9.65;5.18;;;5.30;99.90;;;;;;10327179;28;20054;-62
2021/04/24 05:13:49;;;;;;;13.18;5.13;;;5.40;99.90;;;;;;10328621;28;20531;-63
2021/04/24 05:18:51;;;;;;;11.43;5.50;;;5.50;99.90;;;;;;10332800;28;20052;-62
2021/04/24 05:23:52;;;;;;;10.48;5.40;;;5.60;99.90;;;;;;10327539;28;20046;-62
2021/04/24 05:28:54;;;;;;;14.52;6.05;;;5.80;99.90;;;;;;10325767;28;20054;-62
2021/04/24 05:33:55;;;;;;;15.55;7.32;;;6.00;99.90;;;;;;10328508;28;20046;-62
2021/04/24 05:38:56;;;;;;;10.65;5.68;;;6.20;99.00;;;;;;10327675;28;20494;-62
2021/04/24 05:43:58;;;;;;;14.00;5.85;;;6.40;98.20;;;;;;10327501;28;20057;-62
2021/04/24 05:48:59;;;;;;;13.18;5.65;;;6.60;97.70;;;;;;10327898;28;20046;-62
2021/04/24 05:54:00;;;;;;;15.13;5.85;;;6.80;96.60;;;;;;10327746;28;20123;-62
2021/04/24 05:59:02;;;;;;;11.73;4.82;;;7.00;96.40;;;;;;10324845;28;20050;-61
2021/04/24 06:04:03;;;;;;;18.90;6.85;;;7.20;95.00;;;;;;10328636;28;20053;-62
2021/04/24 06:09:05;;;;;;;18.75;7.07;;;7.40;92.90;;;;;;10334126;28;20053;-61
2021/04/24 06:14:06;;;;;;;13.98;5.78;;;7.50;92.50;;;;;;10336584;28;20049;-62
2021/04/24 06:19:07;;;;;;;13.13;6.45;;;7.60;91.50;;;;;;10334146;28;20102;-62
2021/04/24 06:24:09;;;;;;;14.55;5.20;;;7.70;90.20;;;;;;10333366;28;20135;-63
2021/04/24 06:29:10;;;;;;;10.52;5.13;;;7.90;90.40;;;;;;10335858;28;20229;-61
2021/04/24 06:34:12;;;;;;;11.70;5.65;;;7.90;90.20;;;;;;10334909;28;20050;-61
2021/04/24 06:39:13;;;;;;;10.85;4.80;;;8.00;88.70;;;;;;10333918;28;20049;-62
2021/04/24 06:44:16;;;;;;;11.57;5.15;;;8.00;88.30;;;;;;10332195;28;20042;-61
2021/04/24 06:49:17;;;;;;;15.60;5.28;;;8.00;89.00;;;;;;10321123;28;20128;-61
2021/04/24 06:54:19;;;;;;;13.90;5.65;;;8.00;87.00;;;;;;10313674;28;20054;-61
2021/04/24 06:59:20;;;;;;;14.15;5.55;;;8.10;88.50;;;;;;10334468;28;20085;-61
2021/04/24 07:04:21;;;;;;;13.05;5.40;;;8.10;86.40;;;;;;10334742;28;20050;-61
2021/04/24 07:09:22;;;;;;;12.55;4.85;;;8.20;86.20;;;;;;10333895;28;20046;-61
2021/04/24 07:14:24;;;;;;;12.07;5.18;;;8.40;86.90;;;;;;10332883;28;20052;-62
2021/04/24 07:19:25;;;;;;;13.55;5.30;;;8.50;85.00;;;;;;10330148;28;20057;-61
2021/04/24 07:24:27;;;;;;;15.52;4.88;;;8.70;84.40;;;;;;10330186;28;20038;-61
2021/04/24 07:29:28;;;;;;;14.43;5.43;;;8.80;83.60;;;;;;10334119;28;20104;-62
2021/04/24 07:34:29;;;;;;;11.18;4.57;;;8.70;84.30;;;;;;10330187;28;20061;-62
2021/04/24 07:39:30;;;;;;;13.02;4.88;;;8.90;83.70;;;;;;10332034;28;20073;-60
2021/04/24 07:44:32;;;;;;;16.25;5.50;;;9.00;83.10;;;;;;10330369;28;20452;-60
2021/04/24 07:49:38;;;;;;;11.80;4.90;;;9.00;82.10;;;;;;10325160;28;20065;-59
2021/04/24 07:54:42;;;;;;;9.45;4.88;;;8.90;82.30;;;;;;10326784;28;20042;-60
2021/04/24 07:59:44;;;;;;;11.68;4.75;;;9.00;83.70;;;;;;10334020;28;20620;-60
2021/04/24 08:04:46;;;;;;;9.30;4.70;;;9.10;83.80;;;;;;10329787;28;20046;-61
2021/04/24 08:09:47;;;;;;;12.95;5.20;;;9.20;82.50;;;;;;10332319;28;20042;-60
2021/04/24 08:14:48;;;;;;;9.15;4.00;;;9.30;83.40;;;;;;10331766;28;20061;-60
2021/04/24 08:19:49;;;;;;;8.90;3.67;;;9.50;82.60;;;;;;10327965;28;20054;-60
2021/04/24 08:24:50;;;;;;;9.35;5.28;;;9.60;81.80;;;;;;10326455;28;20124;-60
2021/04/24 08:29:52;;;;;;;8.65;3.92;;;9.80;79.60;;;;;;10328066;28;20050;-60
2021/04/24 08:34:53;;;;;;;12.10;3.63;;;9.90;80.90;;;;;;10330092;28;20123;-61
2021/04/24 08:39:54;;;;;;;14.10;5.35;;;10.00;77.90;;;;;;10327554;28;20089;-60
2021/04/24 08:44:55;;;;;;;12.02;4.10;;;10.30;77.50;;;;;;10330545;28;20057;-60
2021/04/24 08:49:57;;;;;;;8.43;3.38;;;10.30;76.70;;;;;;10329380;28;20453;-59
2021/04/24 08:54:58;;;;;;;9.02;3.83;;;10.50;75.20;;;;;;10330917;28;20052;-60
2021/04/24 08:59:59;;;;;;;9.35;3.55;;;10.70;74.80;;;;;;10332238;28;20053;-59
2021/04/24 09:05:00;;;;;;;11.15;3.72;;;10.90;73.70;;;;;;10324029;28;20050;-60
2021/04/24 09:10:03;;;;;;;11.98;3.75;;;11.10;72.40;;;;;;10325230;28;20050;-60
2021/04/24 09:15:23;;;;;;;8.60;3.22;;;11.20;70.80;;;;;;10304444;28;20060;-60
2021/04/24 09:20:30;;;;;;;8.63;3.03;;;11.40;69.70;;;;;;10238681;28;20110;-60
2021/04/24 09:25:39;;;;;;;6.28;3.03;;;11.50;68.80;;;;;;10327498;28;20631;-60
2021/04/24 09:30:41;;;;;;;9.38;4.05;;;11.70;68.50;;;;;;10327509;28;20053;-60
2021/04/24 09:35:52;;;;;;;7.28;3.08;;;11.80;67.30;;;;;;10330409;28;20061;-59
2021/04/24 09:41:10;;;;;;;10.80;3.30;;;12.10;68.00;;;;;;10281330;28;20037;-60
2021/04/24 09:46:14;;;;;;;9.27;3.95;;;12.20;66.10;;;;;;10325467;28;20137;-61
2021/04/24 09:51:19;;;;;;;12.90;3.85;;;12.40;66.40;;;;;;10326249;28;20054;-61
2021/04/24 09:56:20;;;;;;;7.63;4.15;;;12.80;65.40;;;;;;10312595;28;20100;-60
2021/04/24 10:01:27;;;;;;;7.35;3.70;;;13.00;64.60;;;;;;10324233;28;20084;-60
2021/04/24 10:06:29;;;;;;;10.73;4.10;;;13.00;62.50;;;;;;10328928;28;20042;-61
2021/04/24 10:11:30;;;;;;;8.75;3.60;;;13.10;63.70;;;;;;10326589;28;20046;-62
2021/04/24 10:16:42;;;;;;;11.13;3.70;;;13.30;61.90;;;;;;10323507;28;20528;-61
2021/04/24 10:21:44;;;;;;;11.60;4.20;;;13.50;62.10;;;;;;10312989;28;20497;-60
2021/04/24 10:26:45;;;;;;;9.13;4.70;;;13.80;60.20;;;;;;10326557;28;20447;-61
2021/04/24 10:31:47;;;;;;;12.88;3.67;;;14.00;60.40;;;;;;10331934;28;20112;-61
2021/04/24 10:36:50;;;;;;;8.93;4.00;;;14.10;60.20;;;;;;10327224;28;20484;-62
2021/04/24 10:41:54;;;;;;;10.40;4.00;;;14.40;57.30;;;;;;10311586;28;20050;-60
2021/04/24 10:46:56;;;;;;;8.70;3.55;;;14.70;58.80;;;;;;10323666;28;20054;-61
2021/04/24 10:52:21;;;;;;;8.68;3.88;;;15.00;57.60;;;;;;10333320;28;20046;-61
2021/04/24 10:57:37;;;;;;;8.02;3.33;;;15.40;57.10;;;;;;10333940;28;20050;-61
2021/04/24 11:02:40;;;;;;;9.73;4.10;;;15.50;55.30;;;;;;10333344;28;20065;-61
2021/04/24 11:07:47;;;;;;;12.93;4.07;;;15.80;55.00;;;;;;10333586;28;20058;-58
2021/04/24 11:12:49;;;;;;;7.70;3.95;;;16.00;55.20;;;;;;10334234;28;20046;-59
2021/04/24 11:17:51;;;;;;;8.07;3.47;;;16.10;54.20;;;;;;10342879;28;20057;-59
2021/04/24 11:22:52;;;;;;;19.40;4.07;;;16.60;53.90;;;;;;10326881;28;20136;-62
2021/04/24 11:28:12;;;;;;;12.00;3.72;;;16.50;52.40;;;;;;10329014;28;20108;-63
2021/04/24 11:33:31;;;;;;;9.05;4.20;;;16.70;52.10;;;;;;10329040;28;20045;-59
2021/04/24 11:39:00;;;;;;;8.65;3.72;;;16.70;52.00;;;;;;10332963;28;20148;-61
2021/04/24 11:44:24;;;;;;;10.90;5.97;;;17.00;52.30;;;;;;10283498;28;20092;-61
2021/04/24 11:49:28;;;;;;;9.23;4.10;;;17.10;52.00;;;;;;10283597;28;20083;-61
2021/04/24 11:54:30;;;;;;;9.30;3.88;;;16.70;51.60;;;;;;10309311;28;20049;-61
2021/04/24 11:59:33;;;;;;;10.77;4.40;;;17.00;50.90;;;;;;10329855;28;20109;-62
2021/04/24 12:04:36;;;;;;;7.00;3.60;;;16.80;50.60;;;;;;10330877;28;20116;-61
2021/04/24 12:09:49;;;;;;;7.07;3.33;;;16.90;50.70;;;;;;10328833;28;20050;-62
2021/04/24 12:15:21;;;;;;;8.35;4.03;;;17.10;51.40;;;;;;10322863;28;20038;-61
2021/04/24 12:20:38;;;;;;;6.05;3.20;;;17.30;50.70;;;;;;10328319;28;20054;-61
2021/04/24 12:25:48;;;;;;;9.40;4.20;;;17.40;50.60;;;;;;10328565;28;20064;-61
2021/04/24 12:30:50;;;;;;;9.20;3.80;;;17.30;49.10;;;;;;10322971;28;20057;-61
2021/04/24 12:35:54;;;;;;;6.72;3.30;;;17.80;48.70;;;;;;10328786;28;20483;-61
2021/04/24 12:41:00;;;;;;;7.82;3.08;;;17.80;49.50;;;;;;10323801;28;20112;-62
2021/04/24 12:46:04;;;;;;;;;;;18.30;48.50;;;;;;10332593;28;21173;-61
2021/04/24 12:51:18;;;;;;;9.88;2.97;;;18.50;47.10;;;;;;10308576;28;19933;-61
2021/04/24 12:56:25;;;;;;;4.53;2.45;;;18.50;47.50;;;;;;10326765;28;20050;-62
2021/04/24 13:01:27;;;;;;;4.85;2.55;;;18.50;47.00;;;;;;10327999;28;20045;-61
2021/04/24 13:06:30;;;;;;;12.00;2.83;;;18.90;46.90;;;;;;10327605;28;20050;-62
2021/04/24 13:11:49;;;;;;;5.55;2.97;;;19.30;45.80;;;;;;10324251;28;20046;-61
2021/04/24 13:16:52;;;;;;;5.05;2.10;;;20.00;46.00;;;;;;10320590;28;20058;-61
2021/04/24 13:21:56;;;;;;;6.22;2.75;;;19.90;45.20;;;;;;10326083;28;20064;-62
2021/04/24 13:27:01;;;;;;;3.97;1.85;;;20.20;44.70;;;;;;10328270;28;20441;-60
2021/04/24 13:32:03;;;;;;;4.15;2.30;;;20.20;44.60;;;;;;10291451;28;20055;-63
2021/04/24 13:37:31;;;;;;;4.60;1.80;;;20.10;44.40;;;;;;10287915;28;20049;-62
2021/04/24 13:42:45;;;;;;;2.95;1.70;;;20.20;44.70;;;;;;10252120;28;20062;-63
2021/04/24 13:47:49;;;;;;;4.93;1.60;;;19.80;43.80;;;;;;10280857;28;20480;-63
2021/04/24 13:52:51;;;;;;;4.05;1.40;;;19.00;45.60;;;;;;10288255;28;20053;-63
2021/04/24 13:58:10;;;;;;;3.20;1.70;;;19.30;44.40;;;;;;10285683;28;20152;-63
2021/04/24 14:03:13;;;;;;;2.53;1.42;;;19.20;44.10;;;;;;10283834;28;20062;-65
2021/04/24 14:08:15;;;;;;;4.13;1.30;;;18.90;44.60;;;;;;10282339;28;20054;-64
2021/04/24 14:13:16;;;;;;;2.58;1.10;;;19.40;44.30;;;;;;10286936;28;20054;-64
2021/04/24 14:18:37;;;;;;;4.57;1.15;;;19.80;43.40;;;;;;10288203;28;20053;-65
2021/04/24 14:23:38;;;;;;;3.85;1.15;;;19.90;43.90;;;;;;10288813;28;20054;-64
2021/04/24 14:28:40;;;;;;;4.60;0.95;;;20.10;43.10;;;;;;10294969;28;20750;-65
2021/04/24 14:33:42;;;;;;;4.50;0.90;;;19.80;42.60;;;;;;10329212;28;20064;-64
2021/04/24 14:38:44;;;;;;;3.80;1.00;;;20.20;42.20;;;;;;10329221;28;20065;-68
2021/04/24 14:43:45;;;;;;;6.38;1.13;;;20.40;43.60;;;;;;10331835;28;20515;-68
2021/04/24 14:48:49;;;;;;;1.42;0.80;;;20.60;42.60;;;;;;10329993;28;20037;-62
2021/04/24 14:53:50;;;;;;;3.30;0.90;;;20.50;40.60;;;;;;10335158;28;20643;-63
2021/04/24 14:58:55;;;;;;;3.17;1.50;;;20.00;41.70;;;;;;10337653;28;20054;-63
2021/04/24 15:03:56;;;;;;;5.32;1.77;;;20.20;41.60;;;;;;10334152;28;20053;-62
2021/04/24 15:08:58;;;;;;;3.03;1.20;;;20.20;41.70;;;;;;10335450;28;20061;-62
2021/04/24 15:13:59;;;;;;;3.42;1.25;;;20.00;42.20;;;;;;10335023;28;20046;-61
2021/04/24 15:19:00;;;;;;;4.03;1.15;;;19.60;43.50;;;;;;10317495;28;20389;-60
2021/04/24 15:24:02;;;;;;;1.90;1.45;;;19.50;43.30;;;;;;10328356;28;20109;-61
2021/04/24 15:29:03;;;;;;;1.75;1.00;;;19.80;43.40;;;;;;10332375;28;20055;-61
2021/04/24 15:34:05;;;;;;;2.90;1.40;;;19.20;42.70;;;;;;10339128;28;20058;-60
2021/04/24 15:39:08;;;;;;;3.40;1.40;;;18.70;46.50;;;;;;10342412;28;20464;-61
2021/04/24 15:44:10;;;;;;;3.60;1.63;;;19.00;48.30;;;;;;10327988;28;20038;-60
2021/04/24 15:49:11;;;;;;;2.55;1.15;;;18.90;44.00;;;;;;10333873;28;20052;-66
2021/04/24 15:54:13;;;;;;;3.72;1.55;;;18.70;43.70;;;;;;10329708;28;20412;-68
2021/04/24 15:59:14;;;;;;;2.47;0.98;;;18.50;42.70;;;;;;10328513;28;20128;-70
2021/04/24 16:04:16;;;;;;;4.68;1.73;;;18.80;44.60;;;;;;10332991;28;20388;-68
2021/04/24 16:09:17;;;;;;;3.97;2.08;;;19.20;46.90;;;;;;10333544;28;20205;-67
2021/04/24 16:14:19;;;;;;;3.33;1.80;;;18.90;47.40;;;;;;10329027;28;20042;-66
2021/04/24 16:19:20;;;;;;;2.15;1.30;;;18.80;46.00;;;;;;10332762;28;20046;-62
2021/04/24 16:24:21;;;;;;;3.38;1.27;;;18.70;45.90;;;;;;10331469;28;20121;-62
2021/04/24 16:29:22;;;;;;;4.47;1.15;;;18.60;45.00;;;;;;10333947;28;20124;-63
2021/04/24 16:34:23;;;;;;;2.92;1.40;;;18.80;45.50;;;;;;10333169;28;20046;-62
2021/04/24 16:39:25;;;;;;;4.03;1.40;;;19.10;44.90;;;;;;10333915;28;20460;-62
2021/04/24 16:44:26;;;;;;;2.33;1.00;;;18.80;44.90;;;;;;10331618;28;20087;-63
2021/04/24 16:49:27;;;;;;;5.78;1.48;;;18.60;44.90;;;;;;10331125;28;20046;-64
2021/04/24 16:54:29;;;;;;;3.55;1.48;;;18.30;45.00;;;;;;10333566;28;20483;-63
2021/04/24 16:59:32;;;;;;;4.80;1.17;;;18.10;44.70;;;;;;10329996;28;20062;-64
2021/04/24 17:04:33;;;;;;;3.55;1.52;;;18.10;45.30;;;;;;10321636;28;20061;-63
2021/04/24 17:09:35;;;;;;;5.05;1.23;;;18.00;46.40;;;;;;10331982;28;20616;-63
2021/04/24 17:14:36;;;;;;;4.05;1.73;;;17.90;47.30;;;;;;10325708;28;20038;-63
2021/04/24 17:19:38;;;;;;;2.78;1.13;;;17.80;46.50;;;;;;10325767;28;20117;-63
2021/04/24 17:24:43;;;;;;;4.63;1.63;;;17.50;47.20;;;;;;10330542;28;20033;-64
2021/04/24 17:29:45;;;;;;;4.18;1.65;;;17.30;47.70;;;;;;10325268;28;20056;-64
2021/04/24 17:34:46;;;;;;;4.43;2.10;;;16.90;48.70;;;;;;10326703;28;20131;-63
2021/04/24 17:39:47;;;;;;;4.93;1.75;;;16.70;50.00;;;;;;10327778;28;20489;-63
2021/04/24 17:44:50;;;;;;;5.50;1.85;;;16.30;50.10;;;;;;10325818;28;20052;-63
2021/04/24 17:49:51;;;;;;;9.10;2.10;;;15.90;51.60;;;;;;10327653;28;20050;-64
2021/04/24 17:54:52;;;;;;;5.82;2.22;;;15.50;52.70;;;;;;10326491;28;20061;-64
2021/04/24 17:59:53;;;;;;;4.57;1.65;;;15.10;53.90;;;;;;10334810;28;20080;-63
2021/04/24 18:04:55;;;;;;;4.13;1.88;;;14.90;54.60;;;;;;10320775;28;20053;-62
2021/04/24 18:09:56;;;;;;;5.15;1.92;;;14.60;55.10;;;;;;10334079;28;20061;-63
2021/04/24 18:14:57;;;;;;;5.68;1.60;;;14.40;55.90;;;;;;10337425;28;20050;-63
2021/04/24 18:19:59;;;;;;;5.13;1.67;;;14.10;57.00;;;;;;10331956;28;20088;-61
2021/04/24 18:25:00;;;;;;;3.78;1.80;;;13.80;57.80;;;;;;10325276;28;20045;-62
2021/04/24 18:30:02;;;;;;;7.03;1.80;;;13.50;58.80;;;;;;10338045;28;20049;-63
2021/04/24 18:35:04;;;;;;;5.50;1.63;;;13.30;59.10;;;;;;10335659;28;20096;-63
2021/04/24 18:40:07;;;;;;;3.85;1.40;;;13.00;59.30;;;;;;10330304;28;20069;-66
2021/04/24 18:45:15;;;;;;;5.93;2.38;;;12.80;60.00;;;;;;10334464;28;20050;-60
2021/04/24 18:50:21;;;;;;;4.10;1.95;;;12.60;60.00;;;;;;10331841;28;20145;-60
2021/04/24 18:55:25;;;;;;;5.87;1.97;;;12.40;60.80;;;;;;10337482;28;20053;-61
2021/04/24 19:00:28;;;;;;;8.18;2.38;;;12.20;61.90;;;;;;10337859;28;20053;-62
2021/04/24 19:05:30;;;;;;;5.15;2.03;;;12.00;63.00;;;;;;10332663;28;20390;-62
2021/04/24 19:10:49;;;;;;;7.90;2.33;;;11.80;64.00;;;;;;10329695;28;20049;-62
2021/04/24 19:15:51;;;;;;;7.05;2.83;;;11.60;64.80;;;;;;10332686;28;20586;-61
2021/04/24 19:20:52;;;;;;;4.90;2.20;;;11.40;65.30;;;;;;10313811;28;20378;-63
2021/04/24 19:25:59;;;;;;;6.10;1.98;;;11.20;65.50;;;;;;10331771;28;20113;-62
2021/04/24 19:31:00;;;;;;;6.82;2.20;;;11.10;66.00;;;;;;10336972;28;20082;-63
2021/04/24 19:36:01;;;;;;;7.45;2.20;;;11.00;66.70;;;;;;10331006;28;20509;-62
2021/04/24 19:41:03;;;;;;;6.18;2.40;;;10.80;67.70;;;;;;10333149;28;20065;-61
2021/04/24 19:46:04;;;;;;;6.00;2.63;;;10.70;69.00;;;;;;10328772;28;20448;-61
2021/04/24 19:51:06;;;;;;;6.70;3.30;;;10.70;70.10;;;;;;10311120;28;20576;-60
2021/04/24 19:56:07;;;;;;;6.35;2.85;;;10.60;70.90;;;;;;10328889;28;20416;-63
2021/04/24 20:01:08;;;;;;;16.75;3.33;;;10.50;71.50;;;;;;10332651;28;20465;-61
2021/04/24 20:06:09;;;;;;;5.78;2.75;;;10.40;72.60;;;;;;10332032;28;20050;-61
2021/04/24 20:11:12;;;;;;;7.05;3.05;;;10.30;73.50;;;;;;10302387;28;20480;-61
2021/04/24 20:16:13;;;;;;;7.50;3.05;;;10.20;74.50;;;;;;10326331;28;20057;-61
2021/04/24 20:21:14;;;;;;;8.40;2.50;;;10.10;74.50;;;;;;10329034;28;20501;-61
2021/04/24 20:26:15;;;;;;;14.93;3.10;;;10.00;75.00;;;;;;10327210;28;20476;-61
2021/04/24 20:31:17;;;;;;;6.22;3.00;;;9.90;75.30;;;;;;10323890;28;20042;-62
2021/04/24 20:36:19;;;;;;;6.95;3.25;;;9.80;75.30;;;;;;10316701;28;20049;-62
2021/04/24 20:41:21;;;;;;;8.27;2.90;;;9.70;75.30;;;;;;10311558;28;20133;-61
2021/04/24 20:46:22;;;;;;;6.07;2.88;;;9.60;76.00;;;;;;10327445;28;20489;-62
2021/04/24 20:51:23;;;;;;;6.75;3.58;;;9.60;77.00;;;;;;10320165;28;20441;-61
2021/04/24 20:56:25;;;;;;;8.05;2.60;;;9.50;77.20;;;;;;10328252;28;20099;-61
2021/04/24 21:01:26;;;;;;;7.50;3.42;;;9.40;77.00;;;;;;10327509;28;20062;-62
2021/04/24 21:06:27;;;;;;;7.90;2.90;;;9.30;76.80;;;;;;10314716;28;20137;-62
2021/04/24 21:11:28;;;;;;;10.00;3.28;;;9.20;76.30;;;;;;10329301;28;20397;-61
2021/04/24 21:16:29;;;;;;;11.65;3.08;;;9.20;76.10;;;;;;10325706;28;20522;-61
2021/04/24 21:21:31;;;;;;;7.18;3.35;;;9.10;75.90;;;;;;10327160;28;20089;-61
2021/04/24 21:26:34;;;;;;;10.13;3.65;;;9.10;76.00;;;;;;10316937;28;20049;-62
2021/04/24 21:31:35;;;;;;;7.22;2.95;;;9.00;75.90;;;;;;10329024;28;20456;-62
2021/04/24 21:36:36;;;;;;;8.20;3.45;;;9.00;76.10;;;;;;10328528;28;20045;-61
2021/04/24 21:41:38;;;;;;;6.97;3.88;;;8.90;75.50;;;;;;10327954;28;20104;-62
2021/04/24 21:46:39;;;;;;;9.70;2.90;;;9.00;75.80;;;;;;10326694;28;20050;-61
2021/04/24 21:51:40;;;;;;;5.90;3.08;;;8.90;75.80;;;;;;10327367;28;20046;-60
2021/04/24 21:56:41;;;;;;;9.40;3.13;;;8.80;75.60;;;;;;10326672;28;20054;-61
2021/04/24 22:01:43;;;;;;;8.73;3.53;;;8.80;75.80;;;;;;10311591;28;20474;-64
2021/04/24 22:06:44;;;;;;;11.75;3.50;;;8.70;75.80;;;;;;10328512;28;20491;-62
2021/04/24 22:11:45;;;;;;;7.88;2.78;;;8.70;75.60;;;;;;10331059;28;20058;-62
2021/04/24 22:16:47;;;;;;;5.72;2.17;;;8.60;75.40;;;;;;10326286;28;20054;-62
2021/04/24 22:21:48;;;;;;;9.30;2.97;;;8.60;75.40;;;;;;10326622;28;20104;-62
2021/04/24 22:26:50;;;;;;;9.77;2.58;;;8.50;75.40;;;;;;10321825;28;20112;-62
2021/04/24 22:31:51;;;;;;;7.60;2.95;;;8.50;75.80;;;;;;10324223;28;20135;-62
2021/04/24 22:36:52;;;;;;;6.63;2.90;;;8.40;76.10;;;;;;10321052;28;20469;-62
2021/04/24 22:41:53;;;;;;;6.05;2.45;;;8.30;76.30;;;;;;10326338;28;20049;-63
2021/04/24 22:46:55;;;;;;;8.70;3.13;;;8.30;76.70;;;;;;10329309;28;20054;-62
2021/04/24 22:51:56;;;;;;;6.30;2.60;;;8.20;77.10;;;;;;10332520;28;20054;-62
2021/04/24 22:56:57;;;;;;;6.43;2.88;;;8.10;77.50;;;;;;10326328;28;20496;-62
2021/04/24 23:01:59;;;;;;;12.90;3.55;;;8.10;77.70;;;;;;10335276;28;20062;-63
2021/04/24 23:07:00;;;;;;;6.75;2.97;;;8.00;78.60;;;;;;10330008;28;20051;-64
2021/04/24 23:12:01;;;;;;;10.32;3.42;;;7.90;78.20;;;;;;10334097;28;20069;-63
2021/04/24 23:17:03;;;;;;;5.70;3.03;;;7.90;78.30;;;;;;10332856;28;20500;-63
2021/04/24 23:22:04;;;;;;;4.90;2.28;;;7.90;78.70;;;;;;10332413;28;20042;-64
2021/04/24 23:27:06;;;;;;;7.68;2.90;;;7.80;78.80;;;;;;10329488;28;20058;-64
2021/04/24 23:32:07;;;;;;;7.78;2.58;;;7.80;79.20;;;;;;10331562;28;20113;-64
2021/04/24 23:37:09;;;;;;;8.38;2.80;;;7.70;79.20;;;;;;10330771;28;20061;-64
2021/04/24 23:42:10;;;;;;;10.23;3.35;;;7.70;79.00;;;;;;10313326;28;20061;-64
2021/04/24 23:47:12;;;;;;;8.63;2.88;;;7.70;79.30;;;;;;10326405;28;20436;-64
2021/04/24 23:52:13;;;;;;;5.82;2.33;;;7.70;78.80;;;;;;10329415;28;24656;-64
2021/04/24 23:57:14;;;;;;;8.85;3.45;;;7.70;78.90;;;;;;10334212;28;20050;-64
